createdAt,value
2023-05-02T00:00:31.266Z,36.13
2023-05-02T00:01:31.407Z,36.13
2023-05-02T00:02:31.535Z,36.15
2023-05-02T00:03:31.518Z,36.13
2023-05-02T00:04:31.528Z,36.13
2023-05-02T00:05:31.551Z,36.14
2023-05-02T00:06:31.742Z,36.14
2023-05-02T00:07:31.756Z,36.14
2023-05-02T00:08:31.739Z,36.16
2023-05-02T00:09:31.977Z,36.13
2023-05-02T00:10:31.866Z,36.16
2023-05-02T00:11:31.907Z,36.14
2023-05-02T00:12:31.981Z,36.12
2023-05-02T00:13:32.031Z,36.14
2023-05-02T00:14:32.091Z,36.15
2023-05-02T00:15:32.154Z,36.12
2023-05-02T00:16:32.290Z,36.12
2023-05-02T00:17:32.505Z,36.15
2023-05-02T00:18:32.332Z,36.13
2023-05-02T00:19:32.380Z,36.15
2023-05-02T00:20:32.445Z,36.15
2023-05-02T00:21:32.496Z,36.13
2023-05-02T00:22:32.535Z,36.12
2023-05-02T00:23:32.602Z,36.13
2023-05-02T00:24:32.645Z,36.12
2023-05-02T00:25:32.716Z,36.10
2023-05-02T00:26:32.773Z,36.14
2023-05-02T00:27:32.855Z,36.13
2023-05-02T00:28:32.895Z,36.13
2023-05-02T00:29:32.948Z,36.14
2023-05-02T00:30:33.993Z,36.14
2023-05-02T00:31:33.108Z,36.14
2023-05-02T00:32:33.144Z,36.16
2023-05-02T00:33:33.180Z,36.14
2023-05-02T00:34:33.980Z,36.14
2023-05-02T00:35:33.297Z,36.13
2023-05-02T00:36:33.343Z,36.14
2023-05-02T00:37:33.390Z,36.13
2023-05-02T00:38:33.406Z,36.12
2023-05-02T00:39:33.416Z,36.15
2023-05-02T00:40:33.395Z,36.13
2023-05-02T00:41:33.422Z,36.14
2023-05-02T00:42:33.395Z,36.14
2023-05-02T00:43:33.411Z,36.11
2023-05-02T00:44:33.393Z,36.12
2023-05-02T00:45:33.374Z,36.11
2023-05-02T00:46:33.402Z,36.12
2023-05-02T00:47:33.426Z,36.10
2023-05-02T00:48:33.383Z,36.09
2023-05-02T00:49:33.443Z,36.12
2023-05-02T00:50:33.362Z,36.11
2023-05-02T00:51:33.347Z,36.12
2023-05-02T00:52:33.333Z,36.12
2023-05-02T00:53:33.325Z,36.13
2023-05-02T00:54:33.318Z,36.12
2023-05-02T00:55:33.295Z,36.11
2023-05-02T00:56:33.288Z,36.12
2023-05-02T00:57:33.993Z,36.11
2023-05-02T00:58:33.270Z,36.11
2023-05-02T00:59:33.256Z,36.14
2023-05-02T01:00:33.251Z,36.11
2023-05-02T01:01:33.537Z,36.11
2023-05-02T01:02:33.332Z,36.11
2023-05-02T01:03:33.348Z,36.13
2023-05-02T01:04:33.232Z,36.10
2023-05-02T01:05:33.288Z,36.13
2023-05-02T01:06:33.239Z,36.12
2023-05-02T01:07:34.071Z,36.11
2023-05-02T01:08:33.208Z,36.11
2023-05-02T01:09:33.501Z,36.12
2023-05-02T01:10:33.204Z,36.11
2023-05-02T01:11:33.201Z,36.14
2023-05-02T01:12:33.994Z,36.12
2023-05-02T01:13:33.180Z,36.14
2023-05-02T01:14:33.171Z,36.11
2023-05-02T01:15:33.158Z,36.13
2023-05-02T01:16:33.194Z,36.13
2023-05-02T01:17:33.159Z,36.12
2023-05-02T01:18:33.138Z,36.09
2023-05-02T01:19:33.149Z,36.12
2023-05-02T01:20:33.150Z,36.10
2023-05-02T01:21:33.190Z,36.12
2023-05-02T01:22:33.195Z,36.09
2023-05-02T01:23:33.216Z,36.13
2023-05-02T01:24:33.223Z,36.10
2023-05-02T01:25:33.237Z,36.10
2023-05-02T01:26:33.270Z,36.10
2023-05-02T01:27:33.250Z,36.10
2023-05-02T01:28:33.239Z,36.10
2023-05-02T01:29:33.238Z,36.12
2023-05-02T01:30:34.006Z,36.12
2023-05-02T01:31:33.325Z,36.10
2023-05-02T01:32:33.272Z,36.10
2023-05-02T01:33:33.246Z,36.10
2023-05-02T01:34:33.359Z,36.10
2023-05-02T01:35:33.298Z,36.10
2023-05-02T01:36:33.358Z,36.11
2023-05-02T01:37:33.299Z,36.10
2023-05-02T01:38:33.294Z,36.11
2023-05-02T01:39:33.342Z,36.12
2023-05-02T01:40:33.351Z,36.09
2023-05-02T01:41:33.330Z,36.09
2023-05-02T01:42:33.346Z,36.10
2023-05-02T01:43:33.353Z,36.10
2023-05-02T01:44:33.375Z,36.10
2023-05-02T01:45:33.416Z,36.10
2023-05-02T01:46:33.435Z,36.07
2023-05-02T01:47:33.412Z,36.07
2023-05-02T01:48:33.380Z,36.07
2023-05-02T01:49:33.387Z,36.09
2023-05-02T01:50:33.373Z,36.07
2023-05-02T01:51:33.382Z,36.09
2023-05-02T01:52:33.370Z,36.09
2023-05-02T01:53:33.376Z,36.09
2023-05-02T01:54:33.377Z,36.10
2023-05-02T01:55:33.368Z,36.10
2023-05-02T01:56:33.354Z,36.09
2023-05-02T01:57:33.356Z,36.10
2023-05-02T01:58:33.414Z,36.08
2023-05-02T01:59:33.342Z,36.09
2023-05-02T02:00:33.348Z,36.10
2023-05-02T02:01:33.407Z,36.08
2023-05-02T02:02:33.319Z,36.07
2023-05-02T02:03:33.378Z,36.08
2023-05-02T02:04:33.358Z,36.08
2023-05-02T02:05:33.387Z,36.08
2023-05-02T02:06:33.346Z,36.08
2023-05-02T02:07:33.331Z,36.09
2023-05-02T02:08:33.345Z,36.09
2023-05-02T02:09:33.362Z,36.07
2023-05-02T02:10:33.386Z,36.09
2023-05-02T02:11:33.390Z,36.08
2023-05-02T02:12:33.386Z,36.09
2023-05-02T02:13:33.380Z,36.11
2023-05-02T02:14:33.387Z,36.09
2023-05-02T02:15:33.410Z,36.11
2023-05-02T02:16:33.452Z,36.09
2023-05-02T02:17:33.439Z,36.08
2023-05-02T02:18:33.404Z,36.09
2023-05-02T02:19:33.443Z,36.08
2023-05-02T02:20:33.437Z,36.10
2023-05-02T02:21:33.400Z,36.07
2023-05-02T02:22:33.397Z,36.09
2023-05-02T02:23:33.485Z,36.07
2023-05-02T02:24:33.395Z,36.07
2023-05-02T02:25:33.539Z,36.06
2023-05-02T02:26:33.412Z,36.08
2023-05-02T02:27:34.022Z,36.07
2023-05-02T02:28:33.405Z,36.10
2023-05-02T02:29:33.408Z,36.09
2023-05-02T02:30:33.583Z,36.07
2023-05-02T02:31:33.464Z,36.08
2023-05-02T02:32:33.442Z,36.06
2023-05-02T02:33:33.430Z,36.07
2023-05-02T02:34:33.488Z,36.08
2023-05-02T02:35:33.510Z,36.08
2023-05-02T02:36:33.422Z,36.07
2023-05-02T02:37:33.416Z,36.08
2023-05-02T02:38:33.556Z,36.07
2023-05-02T02:39:33.420Z,36.09
2023-05-02T02:40:33.411Z,36.07
2023-05-02T02:41:33.402Z,36.09
2023-05-02T02:42:33.402Z,36.08
2023-05-02T02:43:33.393Z,36.09
2023-05-02T02:44:33.393Z,36.08
2023-05-02T02:45:33.459Z,36.09
2023-05-02T02:46:33.383Z,36.08
2023-05-02T02:47:33.446Z,36.09
2023-05-02T02:48:33.448Z,36.06
2023-05-02T02:49:33.451Z,36.08
2023-05-02T02:50:33.373Z,36.09
2023-05-02T02:51:33.383Z,36.09
2023-05-02T02:52:33.375Z,36.08
2023-05-02T02:53:33.368Z,36.07
2023-05-02T02:54:33.398Z,36.06
2023-05-02T02:55:33.391Z,36.06
2023-05-02T02:56:33.381Z,36.06
2023-05-02T02:57:33.452Z,36.08
2023-05-02T02:58:33.367Z,36.07
2023-05-02T02:59:33.377Z,36.07
2023-05-02T03:00:33.373Z,36.06
2023-05-02T03:01:33.464Z,36.08
2023-05-02T03:02:33.578Z,36.04
2023-05-02T03:03:33.518Z,36.04
2023-05-02T03:04:33.356Z,36.06
2023-05-02T03:05:34.064Z,36.06
2023-05-02T03:06:33.426Z,36.03
2023-05-02T03:07:34.046Z,36.05
2023-05-02T03:08:33.393Z,36.01
2023-05-02T03:09:33.575Z,36.02
2023-05-02T03:10:33.410Z,36.01
2023-05-02T03:11:33.407Z,35.99
2023-05-02T03:12:33.453Z,35.97
2023-05-02T03:13:33.436Z,35.97
2023-05-02T03:14:33.406Z,35.95
2023-05-02T03:15:33.423Z,35.93
2023-05-02T03:16:33.513Z,35.93
2023-05-02T03:17:33.476Z,35.89
2023-05-02T03:18:33.437Z,35.88
2023-05-02T03:19:33.475Z,35.89
2023-05-02T03:20:33.561Z,35.88
2023-05-02T03:21:33.497Z,35.87
2023-05-02T03:22:33.496Z,35.84
2023-05-02T03:23:33.508Z,35.82
2023-05-02T03:24:33.514Z,35.82
2023-05-02T03:25:33.530Z,35.80
2023-05-02T03:26:33.644Z,35.82
2023-05-02T03:27:33.578Z,35.79
2023-05-02T03:28:33.608Z,35.77
2023-05-02T03:29:33.618Z,35.78
2023-05-02T03:30:33.636Z,35.77
2023-05-02T03:31:33.715Z,35.77
2023-05-02T03:32:33.767Z,35.75
2023-05-02T03:33:33.778Z,35.74
2023-05-02T03:34:33.779Z,35.72
2023-05-02T03:35:33.816Z,35.73
2023-05-02T03:36:33.854Z,35.72
2023-05-02T03:37:33.905Z,35.73
2023-05-02T03:38:33.953Z,35.73
2023-05-02T03:39:34.011Z,35.72
2023-05-02T03:40:34.033Z,35.70
2023-05-02T03:41:34.071Z,35.72
2023-05-02T03:42:34.116Z,35.70
2023-05-02T03:43:34.153Z,35.72
2023-05-02T03:44:34.202Z,35.69
2023-05-02T03:45:34.258Z,35.68
2023-05-02T03:46:34.418Z,35.68
2023-05-02T03:47:34.402Z,35.68
2023-05-02T03:48:34.414Z,35.69
2023-05-02T03:49:34.476Z,35.67
2023-05-02T03:50:34.535Z,35.68
2023-05-02T03:51:34.607Z,35.68
2023-05-02T03:52:34.648Z,35.66
2023-05-02T03:53:34.691Z,35.66
2023-05-02T03:54:34.763Z,35.64
2023-05-02T03:55:34.806Z,35.63
2023-05-02T03:56:34.870Z,35.66
2023-05-02T03:57:34.984Z,35.61
2023-05-02T03:58:34.982Z,35.64
2023-05-02T03:59:35.034Z,35.65
2023-05-02T04:00:35.091Z,35.65
2023-05-02T04:01:35.194Z,35.64
2023-05-02T04:02:35.307Z,35.64
2023-05-02T04:03:35.354Z,35.64
2023-05-02T04:04:35.382Z,35.65
2023-05-02T04:05:35.373Z,35.64
2023-05-02T04:06:35.573Z,35.63
2023-05-02T04:07:35.481Z,35.61
2023-05-02T04:08:35.519Z,35.65
2023-05-02T04:09:35.669Z,35.63
2023-05-02T04:10:35.636Z,35.61
2023-05-02T04:11:36.581Z,35.62
2023-05-02T04:12:35.743Z,35.63
2023-05-02T04:13:35.802Z,35.60
2023-05-02T04:14:35.862Z,35.64
2023-05-02T04:15:35.915Z,35.62
2023-05-02T04:16:35.994Z,35.60
2023-05-02T04:17:36.037Z,35.63
2023-05-02T04:18:36.067Z,35.63
2023-05-02T04:19:36.131Z,35.64
2023-05-02T04:20:36.187Z,35.63
2023-05-02T04:21:36.240Z,35.63
2023-05-02T04:22:36.288Z,35.63
2023-05-02T04:23:36.354Z,35.63
2023-05-02T04:24:36.403Z,35.64
2023-05-02T04:25:36.458Z,35.63
2023-05-02T04:26:36.498Z,35.64
2023-05-02T04:27:36.546Z,35.62
2023-05-02T04:28:36.601Z,35.63
2023-05-02T04:29:36.663Z,35.64
2023-05-02T04:30:36.767Z,35.62
2023-05-02T04:31:37.618Z,35.63
2023-05-02T04:32:36.823Z,35.62
2023-05-02T04:33:36.852Z,35.64
2023-05-02T04:34:36.896Z,35.62
2023-05-02T04:35:36.949Z,35.64
2023-05-02T04:36:36.997Z,35.62
2023-05-02T04:37:37.056Z,35.63
2023-05-02T04:38:37.104Z,35.63
2023-05-02T04:39:37.582Z,35.63
2023-05-02T04:40:37.209Z,35.65
2023-05-02T04:41:37.253Z,35.64
2023-05-02T04:42:37.318Z,35.66
2023-05-02T04:43:37.367Z,35.64
2023-05-02T04:44:37.423Z,35.63
2023-05-02T04:45:37.462Z,35.63
2023-05-02T04:46:37.564Z,35.65
2023-05-02T04:47:37.599Z,35.63
2023-05-02T04:48:37.615Z,35.66
2023-05-02T04:49:37.656Z,35.64
2023-05-02T04:50:37.716Z,35.64
2023-05-02T04:51:37.769Z,35.66
2023-05-02T04:52:37.815Z,35.65
2023-05-02T04:53:37.865Z,35.62
2023-05-02T04:54:37.921Z,35.66
2023-05-02T04:55:37.973Z,35.65
2023-05-02T04:56:38.032Z,35.66
2023-05-02T04:57:38.066Z,35.65
2023-05-02T04:58:38.120Z,35.65
2023-05-02T04:59:38.192Z,35.66
2023-05-02T05:00:38.238Z,35.64
2023-05-02T05:01:38.332Z,35.64
2023-05-02T05:02:38.426Z,35.67
2023-05-02T05:03:38.481Z,35.66
2023-05-02T05:04:38.482Z,35.64
2023-05-02T05:05:38.526Z,35.64
2023-05-02T05:06:38.597Z,35.65
2023-05-02T05:07:38.633Z,35.67
2023-05-02T05:08:38.683Z,35.65
2023-05-02T05:09:39.108Z,35.66
2023-05-02T05:10:38.783Z,35.69
2023-05-02T05:11:38.843Z,35.67
2023-05-02T05:12:38.921Z,35.68
2023-05-02T05:13:38.943Z,35.69
2023-05-02T05:14:39.063Z,35.71
2023-05-02T05:15:39.049Z,35.73
2023-05-02T05:16:39.183Z,35.89
2023-05-02T05:17:39.205Z,36.08
2023-05-02T05:18:39.210Z,36.36
2023-05-02T05:19:39.279Z,36.16
2023-05-02T05:20:39.327Z,36.58
2023-05-02T05:21:39.377Z,36.76
2023-05-02T05:22:39.428Z,36.58
2023-05-02T05:23:39.474Z,36.59
2023-05-02T05:24:39.527Z,36.88
2023-05-02T05:25:39.584Z,36.72
2023-05-02T05:26:39.641Z,37.07
2023-05-02T05:27:39.736Z,37.08
2023-05-02T05:28:39.757Z,36.92
2023-05-02T05:29:39.803Z,36.81
2023-05-02T05:30:39.854Z,37.17
2023-05-02T05:31:39.928Z,37.08
2023-05-02T05:32:39.966Z,37.23
2023-05-02T05:33:39.992Z,37.21
2023-05-02T05:34:40.016Z,37.11
2023-05-02T05:35:40.117Z,37.04
2023-05-02T05:36:40.150Z,36.95
2023-05-02T05:37:41.162Z,36.92
2023-05-02T05:38:40.229Z,36.90
2023-05-02T05:39:40.368Z,36.92
2023-05-02T05:40:41.062Z,36.96
2023-05-02T05:41:40.390Z,36.93
2023-05-02T05:42:40.450Z,36.94
2023-05-02T05:43:40.502Z,36.96
2023-05-02T05:44:40.561Z,36.94
2023-05-02T05:45:40.622Z,36.92
2023-05-02T05:46:40.726Z,36.95
2023-05-02T05:47:40.813Z,36.94
2023-05-02T05:48:40.847Z,36.92
2023-05-02T05:49:40.835Z,36.93
2023-05-02T05:50:40.887Z,36.92
2023-05-02T05:51:40.948Z,36.90
2023-05-02T05:52:41.017Z,36.91
2023-05-02T05:53:41.059Z,36.90
2023-05-02T05:54:41.113Z,36.89
2023-05-02T05:55:42.329Z,36.90
2023-05-02T05:56:41.227Z,36.89
2023-05-02T05:57:41.261Z,36.87
2023-05-02T05:58:41.404Z,36.89
2023-05-02T05:59:41.375Z,36.88
2023-05-02T06:00:41.421Z,36.90
2023-05-02T06:01:41.482Z,36.87
2023-05-02T06:02:42.257Z,36.92
2023-05-02T06:03:41.747Z,36.89
2023-05-02T06:04:41.673Z,36.88
2023-05-02T06:05:41.680Z,36.88
2023-05-02T06:06:41.755Z,36.86
2023-05-02T06:07:41.788Z,36.87
2023-05-02T06:08:41.837Z,36.89
2023-05-02T06:09:42.634Z,36.90
2023-05-02T06:10:41.945Z,36.90
2023-05-02T06:11:41.995Z,36.87
2023-05-02T06:12:42.049Z,36.84
2023-05-02T06:13:42.187Z,36.87
2023-05-02T06:14:42.180Z,36.83
2023-05-02T06:15:42.240Z,36.88
2023-05-02T06:16:42.513Z,36.85
2023-05-02T06:17:42.338Z,36.87
2023-05-02T06:18:42.414Z,36.84
2023-05-02T06:19:42.417Z,36.87
2023-05-02T06:20:42.471Z,36.85
2023-05-02T06:21:42.515Z,36.88
2023-05-02T06:22:42.624Z,36.85
2023-05-02T06:23:42.617Z,36.88
2023-05-02T06:24:42.676Z,36.88
2023-05-02T06:25:42.746Z,36.88
2023-05-02T06:26:42.775Z,36.88
2023-05-02T06:27:42.833Z,36.88
2023-05-02T06:28:42.891Z,36.87
2023-05-02T06:29:43.045Z,36.87
2023-05-02T06:30:43.009Z,36.84
2023-05-02T06:31:44.148Z,36.85
2023-05-02T06:32:42.981Z,36.85
2023-05-02T06:33:43.615Z,36.82
2023-05-02T06:34:42.938Z,36.83
2023-05-02T06:35:42.929Z,36.86
2023-05-02T06:36:42.918Z,36.83
2023-05-02T06:37:43.013Z,36.82
2023-05-02T06:38:43.713Z,36.80
2023-05-02T06:39:42.973Z,36.83
2023-05-02T06:40:43.011Z,36.82
2023-05-02T06:41:43.138Z,36.80
2023-05-02T06:42:43.145Z,36.81
2023-05-02T06:43:43.178Z,36.80
2023-05-02T06:44:43.227Z,36.82
2023-05-02T06:45:43.358Z,36.81
2023-05-02T06:46:43.390Z,36.80
2023-05-02T06:47:43.456Z,36.78
2023-05-02T06:48:43.522Z,36.80
2023-05-02T06:49:43.505Z,36.78
2023-05-02T06:50:43.583Z,36.76
2023-05-02T06:51:43.718Z,36.78
2023-05-02T06:52:43.690Z,36.75
2023-05-02T06:53:43.789Z,36.76
2023-05-02T06:54:44.796Z,36.75
2023-05-02T06:55:43.843Z,36.78
2023-05-02T06:56:43.902Z,36.75
2023-05-02T06:57:43.974Z,36.75
2023-05-02T06:58:44.021Z,36.73
2023-05-02T06:59:44.085Z,36.75
2023-05-02T07:00:44.202Z,36.75
2023-05-02T07:01:44.194Z,36.71
2023-05-02T07:02:44.279Z,36.72
2023-05-02T07:03:44.317Z,36.72
2023-05-02T07:04:44.417Z,36.71
2023-05-02T07:05:44.426Z,36.69
2023-05-02T07:06:44.564Z,36.68
2023-05-02T07:07:44.585Z,36.69
2023-05-02T07:08:44.575Z,36.67
2023-05-02T07:09:44.635Z,36.68
2023-05-02T07:10:44.683Z,36.69
2023-05-02T07:11:44.732Z,36.67
2023-05-02T07:12:44.789Z,36.67
2023-05-02T07:13:44.856Z,36.67
2023-05-02T07:14:44.905Z,36.65
2023-05-02T07:15:45.636Z,36.68
2023-05-02T07:16:45.107Z,36.64
2023-05-02T07:17:45.097Z,36.65
2023-05-02T07:18:45.101Z,37.13
2023-05-02T07:19:45.781Z,37.61
2023-05-02T07:20:45.206Z,37.53
2023-05-02T07:21:45.257Z,37.90
2023-05-02T07:22:45.320Z,38.64
2023-05-02T07:23:45.366Z,39.67
2023-05-02T07:24:45.422Z,40.10
2023-05-02T07:25:45.443Z,40.58
2023-05-02T07:26:45.483Z,40.90
2023-05-02T07:27:45.515Z,41.16
2023-05-02T07:28:45.531Z,41.60
2023-05-02T07:29:45.554Z,42.01
2023-05-02T07:30:45.700Z,42.31
2023-05-02T07:31:45.628Z,42.59
2023-05-02T07:32:45.595Z,42.94
2023-05-02T07:33:45.571Z,43.12
2023-05-02T07:34:45.577Z,43.57
2023-05-02T07:35:45.558Z,43.89
2023-05-02T07:36:45.555Z,44.16
2023-05-02T07:37:45.609Z,44.31
2023-05-02T07:38:45.566Z,44.79
2023-05-02T07:39:45.524Z,45.14
2023-05-02T07:40:45.515Z,45.29
2023-05-02T07:41:45.502Z,45.52
2023-05-02T07:42:45.515Z,45.86
2023-05-02T07:43:45.530Z,45.93
2023-05-02T07:44:45.537Z,46.11
2023-05-02T07:45:45.615Z,46.40
2023-05-02T07:46:45.700Z,46.56
2023-05-02T07:47:45.605Z,46.80
2023-05-02T07:48:46.085Z,47.01
2023-05-02T07:49:45.620Z,47.30
2023-05-02T07:50:45.649Z,47.47
2023-05-02T07:51:45.738Z,47.71
2023-05-02T07:52:45.728Z,47.94
2023-05-02T07:53:45.777Z,48.08
2023-05-02T07:54:45.839Z,48.16
2023-05-02T07:55:45.929Z,48.32
2023-05-02T07:56:45.903Z,48.55
2023-05-02T07:57:45.959Z,48.67
2023-05-02T07:58:46.048Z,48.81
2023-05-02T07:59:46.037Z,48.95
2023-05-02T08:00:46.688Z,49.01
2023-05-02T08:01:46.121Z,49.22
2023-05-02T08:02:46.384Z,49.29
2023-05-02T08:03:46.328Z,49.42
2023-05-02T08:04:46.280Z,49.52
2023-05-02T08:05:46.271Z,49.67
2023-05-02T08:06:46.333Z,49.74
2023-05-02T08:07:46.313Z,49.92
2023-05-02T08:08:46.343Z,50.04
2023-05-02T08:09:46.380Z,50.10
2023-05-02T08:10:46.400Z,50.20
2023-05-02T08:11:46.420Z,50.20
2023-05-02T08:12:46.439Z,50.47
2023-05-02T08:13:46.467Z,50.34
2023-05-02T08:14:47.164Z,50.26
2023-05-02T08:15:46.656Z,49.42
2023-05-02T08:16:46.885Z,45.23
2023-05-02T08:17:46.570Z,44.19
2023-05-02T08:18:46.579Z,42.20
2023-05-02T08:19:46.582Z,42.64
2023-05-02T08:20:46.606Z,42.64
2023-05-02T08:21:46.670Z,42.74
2023-05-02T08:22:46.665Z,43.41
2023-05-02T08:23:46.687Z,43.74
2023-05-02T08:24:46.734Z,43.31
2023-05-02T08:25:46.768Z,43.28
2023-05-02T08:26:46.809Z,43.24
2023-05-02T08:27:46.883Z,43.19
2023-05-02T08:28:46.918Z,43.94
2023-05-02T08:29:46.982Z,44.06
2023-05-02T08:30:47.017Z,43.87
2023-05-02T08:31:47.090Z,43.78
2023-05-02T08:32:47.248Z,43.75
2023-05-02T08:33:47.075Z,43.74
2023-05-02T08:34:47.730Z,43.70
2023-05-02T08:35:47.172Z,43.63
2023-05-02T08:36:47.317Z,43.52
2023-05-02T08:37:47.193Z,43.35
2023-05-02T08:38:47.199Z,43.26
2023-05-02T08:39:47.187Z,43.22
2023-05-02T08:40:47.232Z,43.21
2023-05-02T08:41:47.239Z,43.14
2023-05-02T08:42:47.287Z,43.08
2023-05-02T08:43:47.345Z,43.14
2023-05-02T08:44:47.377Z,43.13
2023-05-02T08:45:47.425Z,43.14
2023-05-02T08:46:47.536Z,43.19
2023-05-02T08:47:47.567Z,43.21
2023-05-02T08:48:47.679Z,43.24
2023-05-02T08:49:47.603Z,43.34
2023-05-02T08:50:47.616Z,43.43
2023-05-02T08:51:47.625Z,43.55
2023-05-02T08:52:48.173Z,43.52
2023-05-02T08:53:48.171Z,43.59
2023-05-02T08:54:47.681Z,43.56
2023-05-02T08:55:47.768Z,43.68
2023-05-02T08:56:47.704Z,43.75
2023-05-02T08:57:47.733Z,43.91
2023-05-02T08:58:47.729Z,43.99
2023-05-02T08:59:47.795Z,44.12
2023-05-02T09:00:47.877Z,44.12
2023-05-02T09:01:47.788Z,44.14
2023-05-02T09:02:47.842Z,44.23
2023-05-02T09:03:47.872Z,44.36
2023-05-02T09:04:47.826Z,44.39
2023-05-02T09:05:47.765Z,44.43
2023-05-02T09:06:47.850Z,44.49
2023-05-02T09:07:47.776Z,44.64
2023-05-02T09:08:48.691Z,44.74
2023-05-02T09:09:47.754Z,44.87
2023-05-02T09:10:47.759Z,44.98
2023-05-02T09:11:47.742Z,45.10
2023-05-02T09:12:47.756Z,45.18
2023-05-02T09:13:47.796Z,45.29
2023-05-02T09:14:47.695Z,45.40
2023-05-02T09:15:47.690Z,45.73
2023-05-02T09:16:47.808Z,45.69
2023-05-02T09:17:47.719Z,46.20
2023-05-02T09:18:47.659Z,46.14
2023-05-02T09:19:47.648Z,46.12
2023-05-02T09:20:47.649Z,45.78
2023-05-02T09:21:47.622Z,46.09
2023-05-02T09:22:47.617Z,46.18
2023-05-02T09:23:47.642Z,46.19
2023-05-02T09:24:47.664Z,46.41
2023-05-02T09:25:47.692Z,46.51
2023-05-02T09:26:47.728Z,46.68
2023-05-02T09:27:47.784Z,46.77
2023-05-02T09:28:47.896Z,46.97
2023-05-02T09:29:47.867Z,47.10
2023-05-02T09:30:48.208Z,47.20
2023-05-02T09:31:55.694Z,47.32
2023-05-02T09:32:48.974Z,47.42
2023-05-02T09:33:47.888Z,47.61
2023-05-02T09:34:47.932Z,47.69
2023-05-02T09:35:47.851Z,47.83
2023-05-02T09:36:47.823Z,47.94
2023-05-02T09:37:47.794Z,48.04
2023-05-02T09:38:47.774Z,48.20
2023-05-02T09:39:47.738Z,48.30
2023-05-02T09:40:47.714Z,48.41
2023-05-02T09:41:47.684Z,48.54
2023-05-02T09:42:47.676Z,48.61
2023-05-02T09:43:47.709Z,48.69
2023-05-02T09:44:47.722Z,48.85
2023-05-02T09:45:47.762Z,48.93
2023-05-02T09:46:47.776Z,49.00
2023-05-02T09:47:47.835Z,49.19
2023-05-02T09:48:47.801Z,49.32
2023-05-02T09:49:47.809Z,49.45
2023-05-02T09:50:47.824Z,49.52
2023-05-02T09:51:47.833Z,49.36
2023-05-02T09:52:47.861Z,49.58
2023-05-02T09:53:47.881Z,49.62
2023-05-02T09:54:47.968Z,49.57
2023-05-02T09:55:47.943Z,49.52
2023-05-02T09:56:47.990Z,49.48
2023-05-02T09:57:48.024Z,49.45
2023-05-02T09:58:48.134Z,49.32
2023-05-02T09:59:48.125Z,49.12
2023-05-02T10:00:48.146Z,48.92
2023-05-02T10:01:48.151Z,48.69
2023-05-02T10:02:48.225Z,48.44
2023-05-02T10:03:48.284Z,48.01
2023-05-02T10:04:48.246Z,47.85
2023-05-02T10:05:48.315Z,47.72
2023-05-02T10:06:48.384Z,47.79
2023-05-02T10:07:51.192Z,47.89
2023-05-02T10:08:48.368Z,47.96
2023-05-02T10:09:48.334Z,48.14
2023-05-02T10:10:48.316Z,48.44
2023-05-02T10:11:48.295Z,48.16
2023-05-02T10:12:48.711Z,47.69
2023-05-02T10:13:48.312Z,47.74
2023-05-02T10:14:48.214Z,47.61
2023-05-02T10:15:48.211Z,47.44
2023-05-02T10:16:48.181Z,47.52
2023-05-02T10:17:48.225Z,47.45
2023-05-02T10:18:48.127Z,47.41
2023-05-02T10:19:48.115Z,47.38
2023-05-02T10:20:48.209Z,47.41
2023-05-02T10:21:48.072Z,47.48
2023-05-02T10:22:48.092Z,47.57
2023-05-02T10:23:48.149Z,47.61
2023-05-02T10:24:48.014Z,47.65
2023-05-02T10:25:48.124Z,47.62
2023-05-02T10:26:47.973Z,47.61
2023-05-02T10:27:47.963Z,47.55
2023-05-02T10:28:47.950Z,47.51
2023-05-02T10:29:47.947Z,47.49
2023-05-02T10:30:47.931Z,47.53
2023-05-02T10:31:47.930Z,47.45
2023-05-02T10:32:47.923Z,47.42
2023-05-02T10:33:47.871Z,47.40
2023-05-02T10:34:48.714Z,47.36
2023-05-02T10:35:47.841Z,47.37
2023-05-02T10:36:47.818Z,47.36
2023-05-02T10:37:47.845Z,47.33
2023-05-02T10:38:47.790Z,47.28
2023-05-02T10:39:47.765Z,47.31
2023-05-02T10:40:47.744Z,47.30
2023-05-02T10:41:47.737Z,47.27
2023-05-02T10:42:47.711Z,47.28
2023-05-02T10:43:47.689Z,47.26
2023-05-02T10:44:47.718Z,47.19
2023-05-02T10:45:47.782Z,47.21
2023-05-02T10:46:47.835Z,47.17
2023-05-02T10:47:47.904Z,47.16
2023-05-02T10:48:47.904Z,47.12
2023-05-02T10:49:47.952Z,47.16
2023-05-02T10:50:47.998Z,47.13
2023-05-02T10:51:48.046Z,47.10
2023-05-02T10:52:48.091Z,47.08
2023-05-02T10:53:48.149Z,47.09
2023-05-02T10:54:48.714Z,47.06
2023-05-02T10:55:49.306Z,47.03
2023-05-02T10:56:48.262Z,47.01
2023-05-02T10:57:48.320Z,47.00
2023-05-02T10:58:48.727Z,47.00
2023-05-02T10:59:48.414Z,46.97
2023-05-02T11:00:49.221Z,46.91
2023-05-02T11:01:48.533Z,46.91
2023-05-02T11:02:48.627Z,46.91
2023-05-02T11:03:48.586Z,46.86
2023-05-02T11:04:48.635Z,46.87
2023-05-02T11:05:48.697Z,46.86
2023-05-02T11:06:48.789Z,46.82
2023-05-02T11:07:48.789Z,46.81
2023-05-02T11:08:48.842Z,46.73
2023-05-02T11:09:48.876Z,46.72
2023-05-02T11:10:48.955Z,46.74
2023-05-02T11:11:48.994Z,46.70
2023-05-02T11:12:49.171Z,46.65
2023-05-02T11:13:49.230Z,46.63
2023-05-02T11:14:49.152Z,46.65
2023-05-02T11:15:49.282Z,46.61
2023-05-02T11:16:49.429Z,46.62
2023-05-02T11:17:49.341Z,46.59
2023-05-02T11:18:49.405Z,46.52
2023-05-02T11:19:49.411Z,46.51
2023-05-02T11:20:49.469Z,46.49
2023-05-02T11:21:50.236Z,46.47
2023-05-02T11:22:49.567Z,46.47
2023-05-02T11:23:49.606Z,46.44
2023-05-02T11:24:49.715Z,46.40
2023-05-02T11:25:49.704Z,46.34
2023-05-02T11:26:49.781Z,46.35
2023-05-02T11:27:49.820Z,46.37
2023-05-02T11:28:49.865Z,46.32
2023-05-02T11:29:49.913Z,46.32
2023-05-02T11:30:49.977Z,46.29
2023-05-02T11:31:50.098Z,46.31
2023-05-02T11:32:50.204Z,46.25
2023-05-02T11:33:50.110Z,46.25
2023-05-02T11:34:50.234Z,46.26
2023-05-02T11:35:50.203Z,46.26
2023-05-02T11:36:50.312Z,46.24
2023-05-02T11:37:50.303Z,46.21
2023-05-02T11:38:50.336Z,46.17
2023-05-02T11:39:50.393Z,46.15
2023-05-02T11:40:50.443Z,46.14
2023-05-02T11:41:50.508Z,46.15
2023-05-02T11:42:50.585Z,46.12
2023-05-02T11:43:50.756Z,46.13
2023-05-02T11:44:50.649Z,46.11
2023-05-02T11:45:50.769Z,46.08
2023-05-02T11:46:50.724Z,46.08
2023-05-02T11:47:50.767Z,46.05
2023-05-02T11:48:50.807Z,45.77
2023-05-02T11:49:51.835Z,45.88
2023-05-02T11:50:51.021Z,46.72
2023-05-02T11:51:50.820Z,47.21
2023-05-02T11:52:50.831Z,45.85
2023-05-02T11:53:50.837Z,46.01
2023-05-02T11:54:50.827Z,45.21
2023-05-02T11:55:51.263Z,45.25
2023-05-02T11:56:50.834Z,45.52
2023-05-02T11:57:50.826Z,45.21
2023-05-02T11:58:50.828Z,45.96
2023-05-02T11:59:50.822Z,45.95
2023-05-02T12:00:50.810Z,46.06
2023-05-02T12:01:50.811Z,46.04
2023-05-02T12:02:50.873Z,46.02
2023-05-02T12:03:50.851Z,45.99
2023-05-02T12:04:50.794Z,45.99
2023-05-02T12:05:50.829Z,46.00
2023-05-02T12:06:50.844Z,45.97
2023-05-02T12:07:50.790Z,45.91
2023-05-02T12:08:50.796Z,45.83
2023-05-02T12:09:50.798Z,45.83
2023-05-02T12:10:50.814Z,45.82
2023-05-02T12:11:50.832Z,45.81
2023-05-02T12:12:50.809Z,45.76
2023-05-02T12:13:50.993Z,45.73
2023-05-02T12:14:50.831Z,45.72
2023-05-02T12:15:50.847Z,45.70
2023-05-02T12:16:50.812Z,45.69
2023-05-02T12:17:50.880Z,45.65
2023-05-02T12:18:50.900Z,45.62
2023-05-02T12:19:50.833Z,45.61
2023-05-02T12:20:50.846Z,45.58
2023-05-02T12:21:50.847Z,45.59
2023-05-02T12:22:50.851Z,45.54
2023-05-02T12:23:50.875Z,45.56
2023-05-02T12:24:50.853Z,45.58
2023-05-02T12:25:50.856Z,45.56
2023-05-02T12:26:51.848Z,45.54
2023-05-02T12:27:50.910Z,45.53
2023-05-02T12:28:50.885Z,45.52
2023-05-02T12:29:50.867Z,45.45
2023-05-02T12:30:50.855Z,45.47
2023-05-02T12:31:50.907Z,45.44
2023-05-02T12:32:50.892Z,45.42
2023-05-02T12:33:51.207Z,45.38
2023-05-02T12:34:50.873Z,45.35
2023-05-02T12:35:50.884Z,45.30
2023-05-02T12:36:50.897Z,45.24
2023-05-02T12:37:50.892Z,45.25
2023-05-02T12:38:50.893Z,45.21
2023-05-02T12:39:50.892Z,45.17
2023-05-02T12:40:50.895Z,45.10
2023-05-02T12:41:50.912Z,45.05
2023-05-02T12:42:50.918Z,45.02
2023-05-02T12:43:50.916Z,45.01
2023-05-02T12:44:50.929Z,44.98
2023-05-02T12:45:50.938Z,44.96
2023-05-02T12:46:51.013Z,44.89
2023-05-02T12:47:51.019Z,44.86
2023-05-02T12:48:51.057Z,44.83
2023-05-02T12:49:50.971Z,44.80
2023-05-02T12:50:50.971Z,44.82
2023-05-02T12:51:50.964Z,44.83
2023-05-02T12:52:51.043Z,44.79